sensor_id;sensor_type;location;lat;lon;timestamp;temperature;humidity
9768;DHT22;4923;52.520;13.494;2023-06-14T00:02:27;13.60;1.00
9768;DHT22;4923;52.520;13.494;2023-06-14T00:05:15;13.60;1.00
9768;DHT22;4923;52.520;13.494;2023-06-14T00:08:02;13.50;1.00
9768;DHT22;4923;52.520;13.494;2023-06-14T00:10:51;13.50;1.00
9768;DHT22;4923;52.520;13.494;2023-06-14T00:13:37;13.50;1.00
9768;DHT22;4923;52.520;13.494;2023-06-14T00:16:24;13.40;1.00
9768;DHT22;4923;52.520;13.494;2023-06-14T00:19:11;13.50;1.00
9768;DHT22;4923;52.520;13.494;2023-06-14T00:21:59;13.50;1.00
9768;DHT22;4923;52.520;13.494;2023-06-14T00:24:46;13.40;1.00
9768;DHT22;4923;52.520;13.494;2023-06-14T00:27:33;13.40;1.00
9768;DHT22;4923;52.520;13.494;2023-06-14T00:30:20;13.50;1.00
9768;DHT22;4923;52.520;13.494;2023-06-14T00:33:07;13.40;1.00
9768;DHT22;4923;52.520;13.494;2023-06-14T00:35:54;13.40;1.00
9768;DHT22;4923;52.520;13.494;2023-06-14T00:38:42;13.40;1.00
9768;DHT22;4923;52.520;13.494;2023-06-14T00:41:29;13.40;1.00
9768;DHT22;4923;52.520;13.494;2023-06-14T00:44:16;13.40;1.00
9768;DHT22;4923;52.520;13.494;2023-06-14T00:47:04;13.40;1.00
9768;DHT22;4923;52.520;13.494;2023-06-14T00:49:51;13.40;1.00
9768;DHT22;4923;52.520;13.494;2023-06-14T00:52:39;13.40;1.00
9768;DHT22;4923;52.520;13.494;2023-06-14T00:55:28;13.30;1.00
9768;DHT22;4923;52.520;13.494;2023-06-14T00:58:15;13.30;1.00
9768;DHT22;4923;52.520;13.494;2023-06-14T01:01:02;13.20;1.00
9768;DHT22;4923;52.520;13.494;2023-06-14T01:03:49;13.20;1.00
9768;DHT22;4923;52.520;13.494;2023-06-14T01:06:45;13.20;1.00
9768;DHT22;4923;52.520;13.494;2023-06-14T01:09:41;13.20;1.00
9768;DHT22;4923;52.520;13.494;2023-06-14T01:12:39;13.20;1.00
9768;DHT22;4923;52.520;13.494;2023-06-14T01:15:27;13.10;1.00
9768;DHT22;4923;52.520;13.494;2023-06-14T01:18:15;13.00;1.00
9768;DHT22;4923;52.520;13.494;2023-06-14T01:21:03;12.90;1.00
9768;DHT22;4923;52.520;13.494;2023-06-14T01:23:52;12.90;1.00
9768;DHT22;4923;52.520;13.494;2023-06-14T01:26:40;12.90;1.00
9768;DHT22;4923;52.520;13.494;2023-06-14T01:29:31;12.80;1.00
9768;DHT22;4923;52.520;13.494;2023-06-14T01:32:19;12.80;1.00
9768;DHT22;4923;52.520;13.494;2023-06-14T01:35:06;12.80;1.00
9768;DHT22;4923;52.520;13.494;2023-06-14T01:37:54;12.80;1.00
9768;DHT22;4923;52.520;13.494;2023-06-14T01:40:42;12.80;1.00
9768;DHT22;4923;52.520;13.494;2023-06-14T01:43:30;12.90;1.00
9768;DHT22;4923;52.520;13.494;2023-06-14T01:46:17;12.90;1.00
9768;DHT22;4923;52.520;13.494;2023-06-14T01:49:05;13.00;1.00
9768;DHT22;4923;52.520;13.494;2023-06-14T01:51:52;13.00;1.00
9768;DHT22;4923;52.520;13.494;2023-06-14T01:54:39;12.90;1.00
9768;DHT22;4923;52.520;13.494;2023-06-14T01:57:28;12.90;1.00
9768;DHT22;4923;52.520;13.494;2023-06-14T02:00:16;12.90;1.00
9768;DHT22;4923;52.520;13.494;2023-06-14T02:03:03;13.00;1.00
9768;DHT22;4923;52.520;13.494;2023-06-14T02:05:50;12.90;1.00
9768;DHT22;4923;52.520;13.494;2023-06-14T02:08:37;12.90;1.00
9768;DHT22;4923;52.520;13.494;2023-06-14T02:11:24;12.90;1.00
9768;DHT22;4923;52.520;13.494;2023-06-14T02:14:12;12.90;1.00
9768;DHT22;4923;52.520;13.494;2023-06-14T02:17:00;12.90;1.00
9768;DHT22;4923;52.520;13.494;2023-06-14T02:19:47;12.90;1.00
9768;DHT22;4923;52.520;13.494;2023-06-14T02:22:34;12.90;1.00
9768;DHT22;4923;52.520;13.494;2023-06-14T02:25:21;12.90;1.00
9768;DHT22;4923;52.520;13.494;2023-06-14T02:28:08;12.90;1.00
9768;DHT22;4923;52.520;13.494;2023-06-14T02:30:56;12.90;1.00
9768;DHT22;4923;52.520;13.494;2023-06-14T02:33:42;12.80;1.00
9768;DHT22;4923;52.520;13.494;2023-06-14T02:36:29;12.80;1.00
9768;DHT22;4923;52.520;13.494;2023-06-14T02:39:16;12.80;1.00
9768;DHT22;4923;52.520;13.494;2023-06-14T02:42:07;12.80;1.00
9768;DHT22;4923;52.520;13.494;2023-06-14T02:44:53;12.80;1.00
9768;DHT22;4923;52.520;13.494;2023-06-14T02:47:42;12.80;1.00
9768;DHT22;4923;52.520;13.494;2023-06-14T02:50:28;12.70;1.00
9768;DHT22;4923;52.520;13.494;2023-06-14T02:53:16;12.70;1.00
9768;DHT22;4923;52.520;13.494;2023-06-14T02:56:03;12.70;1.00
9768;DHT22;4923;52.520;13.494;2023-06-14T02:58:50;12.80;1.00
9768;DHT22;4923;52.520;13.494;2023-06-14T03:01:39;12.80;1.00
9768;DHT22;4923;52.520;13.494;2023-06-14T03:04:28;12.80;1.00
9768;DHT22;4923;52.520;13.494;2023-06-14T03:07:15;12.70;1.00
9768;DHT22;4923;52.520;13.494;2023-06-14T03:10:06;12.80;1.00
9768;DHT22;4923;52.520;13.494;2023-06-14T03:12:53;12.80;1.00
9768;DHT22;4923;52.520;13.494;2023-06-14T03:15:39;12.80;1.00
9768;DHT22;4923;52.520;13.494;2023-06-14T03:18:27;12.80;1.00
9768;DHT22;4923;52.520;13.494;2023-06-14T03:21:15;12.90;1.00
9768;DHT22;4923;52.520;13.494;2023-06-14T03:24:02;12.90;1.00
9768;DHT22;4923;52.520;13.494;2023-06-14T03:26:49;12.90;1.00
9768;DHT22;4923;52.520;13.494;2023-06-14T03:29:36;13.00;1.00
9768;DHT22;4923;52.520;13.494;2023-06-14T03:32:23;13.00;1.00
9768;DHT22;4923;52.520;13.494;2023-06-14T03:35:10;13.10;1.00
9768;DHT22;4923;52.520;13.494;2023-06-14T03:38:03;13.10;1.00
9768;DHT22;4923;52.520;13.494;2023-06-14T03:40:50;13.10;1.00
9768;DHT22;4923;52.520;13.494;2023-06-14T03:43:37;13.10;1.00
9768;DHT22;4923;52.520;13.494;2023-06-14T03:46:24;13.20;1.00
9768;DHT22;4923;52.520;13.494;2023-06-14T03:49:11;13.30;1.00
9768;DHT22;4923;52.520;13.494;2023-06-14T03:51:58;13.50;1.00
9768;DHT22;4923;52.520;13.494;2023-06-14T03:54:46;13.90;1.00
9768;DHT22;4923;52.520;13.494;2023-06-14T03:57:33;14.50;1.00
9768;DHT22;4923;52.520;13.494;2023-06-14T04:00:20;15.40;1.00
9768;DHT22;4923;52.520;13.494;2023-06-14T04:03:07;16.10;1.00
9768;DHT22;4923;52.520;13.494;2023-06-14T04:05:54;16.40;1.00
9768;DHT22;4923;52.520;13.494;2023-06-14T04:08:42;16.60;1.00
9768;DHT22;4923;52.520;13.494;2023-06-14T04:11:32;16.80;1.00
9768;DHT22;4923;52.520;13.494;2023-06-14T04:14:19;16.80;1.00
9768;DHT22;4923;52.520;13.494;2023-06-14T04:17:06;17.20;1.00
9768;DHT22;4923;52.520;13.494;2023-06-14T04:19:53;17.40;1.00
9768;DHT22;4923;52.520;13.494;2023-06-14T04:22:40;17.30;1.00
9768;DHT22;4923;52.520;13.494;2023-06-14T04:25:26;17.70;1.00
9768;DHT22;4923;52.520;13.494;2023-06-14T04:28:17;17.90;1.00
9768;DHT22;4923;52.520;13.494;2023-06-14T04:31:05;17.80;1.00
9768;DHT22;4923;52.520;13.494;2023-06-14T04:33:53;17.70;1.00
9768;DHT22;4923;52.520;13.494;2023-06-14T04:36:40;18.10;1.00
9768;DHT22;4923;52.520;13.494;2023-06-14T04:39:34;18.10;1.00
9768;DHT22;4923;52.520;13.494;2023-06-14T04:42:22;18.40;1.00
9768;DHT22;4923;52.520;13.494;2023-06-14T04:45:11;18.60;1.00
9768;DHT22;4923;52.520;13.494;2023-06-14T04:47:58;18.60;1.00
9768;DHT22;4923;52.520;13.494;2023-06-14T04:50:45;18.60;1.00
9768;DHT22;4923;52.520;13.494;2023-06-14T04:53:32;18.80;1.00
9768;DHT22;4923;52.520;13.494;2023-06-14T04:56:19;19.00;1.00
9768;DHT22;4923;52.520;13.494;2023-06-14T04:59:07;19.20;1.00
9768;DHT22;4923;52.520;13.494;2023-06-14T05:01:55;18.90;1.00
9768;DHT22;4923;52.520;13.494;2023-06-14T05:04:42;18.90;1.00
9768;DHT22;4923;52.520;13.494;2023-06-14T05:07:29;18.70;1.00
9768;DHT22;4923;52.520;13.494;2023-06-14T05:10:16;17.70;1.00
9768;DHT22;4923;52.520;13.494;2023-06-14T05:13:03;17.30;1.00
9768;DHT22;4923;52.520;13.494;2023-06-14T05:15:50;17.00;1.00
9768;DHT22;4923;52.520;13.494;2023-06-14T05:18:38;16.80;1.00
9768;DHT22;4923;52.520;13.494;2023-06-14T05:21:25;16.80;1.00
9768;DHT22;4923;52.520;13.494;2023-06-14T05:24:12;16.90;1.00
9768;DHT22;4923;52.520;13.494;2023-06-14T05:27:00;16.90;1.00
9768;DHT22;4923;52.520;13.494;2023-06-14T05:29:47;16.80;1.00
9768;DHT22;4923;52.520;13.494;2023-06-14T05:32:34;16.70;1.00
9768;DHT22;4923;52.520;13.494;2023-06-14T05:35:22;16.90;1.00
9768;DHT22;4923;52.520;13.494;2023-06-14T05:38:12;16.60;1.00
9768;DHT22;4923;52.520;13.494;2023-06-14T05:40:59;16.30;1.00
9768;DHT22;4923;52.520;13.494;2023-06-14T05:43:46;16.30;1.00
9768;DHT22;4923;52.520;13.494;2023-06-14T05:46:32;16.20;1.00
9768;DHT22;4923;52.520;13.494;2023-06-14T05:49:19;15.90;1.00
9768;DHT22;4923;52.520;13.494;2023-06-14T05:52:08;15.80;1.00
9768;DHT22;4923;52.520;13.494;2023-06-14T05:54:55;15.70;1.00
9768;DHT22;4923;52.520;13.494;2023-06-14T05:57:42;15.70;1.00
9768;DHT22;4923;52.520;13.494;2023-06-14T06:00:29;15.60;1.00
9768;DHT22;4923;52.520;13.494;2023-06-14T06:03:16;15.70;1.00
9768;DHT22;4923;52.520;13.494;2023-06-14T06:06:03;15.80;1.00
9768;DHT22;4923;52.520;13.494;2023-06-14T06:08:51;15.80;1.00
9768;DHT22;4923;52.520;13.494;2023-06-14T06:11:38;15.70;1.00
9768;DHT22;4923;52.520;13.494;2023-06-14T06:14:25;15.50;1.00
9768;DHT22;4923;52.520;13.494;2023-06-14T06:17:12;15.50;1.00
9768;DHT22;4923;52.520;13.494;2023-06-14T06:19:58;15.50;1.00
9768;DHT22;4923;52.520;13.494;2023-06-14T06:22:45;15.70;1.00
9768;DHT22;4923;52.520;13.494;2023-06-14T06:25:33;15.80;1.00
9768;DHT22;4923;52.520;13.494;2023-06-14T06:28:20;15.70;1.00
9768;DHT22;4923;52.520;13.494;2023-06-14T06:31:07;15.70;1.00
9768;DHT22;4923;52.520;13.494;2023-06-14T06:33:54;15.80;1.00
9768;DHT22;4923;52.520;13.494;2023-06-14T06:36:41;15.70;1.00
9768;DHT22;4923;52.520;13.494;2023-06-14T06:39:28;15.60;1.00
9768;DHT22;4923;52.520;13.494;2023-06-14T06:42:16;15.70;1.00
9768;DHT22;4923;52.520;13.494;2023-06-14T06:45:04;15.80;1.00
9768;DHT22;4923;52.520;13.494;2023-06-14T06:47:51;16.10;1.00
9768;DHT22;4923;52.520;13.494;2023-06-14T06:50:38;16.30;1.00
9768;DHT22;4923;52.520;13.494;2023-06-14T06:53:25;16.20;1.00
9768;DHT22;4923;52.520;13.494;2023-06-14T06:56:12;16.30;1.00
9768;DHT22;4923;52.520;13.494;2023-06-14T06:59:00;16.50;1.00
9768;DHT22;4923;52.520;13.494;2023-06-14T07:01:47;16.70;1.00
9768;DHT22;4923;52.520;13.494;2023-06-14T07:04:34;16.90;1.00
9768;DHT22;4923;52.520;13.494;2023-06-14T07:07:21;16.90;1.00
9768;DHT22;4923;52.520;13.494;2023-06-14T07:10:08;16.90;1.00
9768;DHT22;4923;52.520;13.494;2023-06-14T07:12:56;17.00;1.00
9768;DHT22;4923;52.520;13.494;2023-06-14T07:15:44;16.90;1.00
9768;DHT22;4923;52.520;13.494;2023-06-14T07:18:31;16.90;1.00
9768;DHT22;4923;52.520;13.494;2023-06-14T07:21:18;16.90;1.00
9768;DHT22;4923;52.520;13.494;2023-06-14T07:24:05;17.00;1.00
9768;DHT22;4923;52.520;13.494;2023-06-14T07:26:53;16.70;1.00
9768;DHT22;4923;52.520;13.494;2023-06-14T07:29:41;16.80;1.00
9768;DHT22;4923;52.520;13.494;2023-06-14T07:32:30;17.30;1.00
9768;DHT22;4923;52.520;13.494;2023-06-14T07:35:16;17.90;1.00
9768;DHT22;4923;52.520;13.494;2023-06-14T07:38:03;18.20;1.00
9768;DHT22;4923;52.520;13.494;2023-06-14T07:40:50;18.50;1.00
9768;DHT22;4923;52.520;13.494;2023-06-14T07:43:37;18.60;1.00
9768;DHT22;4923;52.520;13.494;2023-06-14T07:46:24;18.60;1.00
9768;DHT22;4923;52.520;13.494;2023-06-14T07:49:12;19.00;1.00
9768;DHT22;4923;52.520;13.494;2023-06-14T07:51:59;19.30;1.00
9768;DHT22;4923;52.520;13.494;2023-06-14T07:54:45;19.30;1.00
9768;DHT22;4923;52.520;13.494;2023-06-14T07:57:32;19.60;1.00
9768;DHT22;4923;52.520;13.494;2023-06-14T08:00:20;19.90;1.00
9768;DHT22;4923;52.520;13.494;2023-06-14T08:03:07;20.10;1.00
9768;DHT22;4923;52.520;13.494;2023-06-14T08:05:55;19.50;1.00
9768;DHT22;4923;52.520;13.494;2023-06-14T08:08:42;19.10;1.00
9768;DHT22;4923;52.520;13.494;2023-06-14T08:11:28;19.30;1.00
9768;DHT22;4923;52.520;13.494;2023-06-14T08:14:15;19.20;1.00
9768;DHT22;4923;52.520;13.494;2023-06-14T08:17:03;19.30;1.00
9768;DHT22;4923;52.520;13.494;2023-06-14T08:19:49;19.70;1.00
9768;DHT22;4923;52.520;13.494;2023-06-14T08:22:38;19.80;1.00
9768;DHT22;4923;52.520;13.494;2023-06-14T08:25:27;20.00;1.00
9768;DHT22;4923;52.520;13.494;2023-06-14T08:28:14;20.20;1.00
9768;DHT22;4923;52.520;13.494;2023-06-14T08:31:01;20.20;1.00
9768;DHT22;4923;52.520;13.494;2023-06-14T08:33:48;20.10;1.00
9768;DHT22;4923;52.520;13.494;2023-06-14T08:36:35;20.00;1.00
9768;DHT22;4923;52.520;13.494;2023-06-14T08:39:23;19.80;1.00
9768;DHT22;4923;52.520;13.494;2023-06-14T08:42:10;19.90;1.00
9768;DHT22;4923;52.520;13.494;2023-06-14T08:44:59;19.30;1.00
9768;DHT22;4923;52.520;13.494;2023-06-14T08:47:46;19.60;1.00
9768;DHT22;4923;52.520;13.494;2023-06-14T08:50:40;19.90;1.00
9768;DHT22;4923;52.520;13.494;2023-06-14T08:53:29;20.30;1.00
9768;DHT22;4923;52.520;13.494;2023-06-14T08:56:19;20.50;1.00
9768;DHT22;4923;52.520;13.494;2023-06-14T08:59:06;20.60;1.00
9768;DHT22;4923;52.520;13.494;2023-06-14T09:01:54;21.00;1.00
9768;DHT22;4923;52.520;13.494;2023-06-14T09:04:42;21.60;1.00
9768;DHT22;4923;52.520;13.494;2023-06-14T09:07:30;21.80;1.00
9768;DHT22;4923;52.520;13.494;2023-06-14T09:10:17;21.90;99.90
9768;DHT22;4923;52.520;13.494;2023-06-14T09:13:06;21.70;99.90
9768;DHT22;4923;52.520;13.494;2023-06-14T09:15:53;21.70;99.90
9768;DHT22;4923;52.520;13.494;2023-06-14T09:18:41;21.80;99.90
9768;DHT22;4923;52.520;13.494;2023-06-14T09:21:33;22.10;99.90
9768;DHT22;4923;52.520;13.494;2023-06-14T09:24:23;22.50;99.90
9768;DHT22;4923;52.520;13.494;2023-06-14T09:27:15;22.10;99.90
9768;DHT22;4923;52.520;13.494;2023-06-14T09:30:04;22.10;99.90
9768;DHT22;4923;52.520;13.494;2023-06-14T09:32:54;22.20;99.90
9768;DHT22;4923;52.520;13.494;2023-06-14T09:35:40;22.10;99.90
9768;DHT22;4923;52.520;13.494;2023-06-14T09:38:27;22.50;99.90
9768;DHT22;4923;52.520;13.494;2023-06-14T09:41:14;22.30;99.90
9768;DHT22;4923;52.520;13.494;2023-06-14T09:44:02;22.10;99.90
9768;DHT22;4923;52.520;13.494;2023-06-14T09:46:51;22.30;99.90
9768;DHT22;4923;52.520;13.494;2023-06-14T09:49:39;22.30;99.90
9768;DHT22;4923;52.520;13.494;2023-06-14T09:52:27;22.30;99.90
9768;DHT22;4923;52.520;13.494;2023-06-14T09:55:15;21.90;99.90
9768;DHT22;4923;52.520;13.494;2023-06-14T09:58:05;21.60;99.90
9768;DHT22;4923;52.520;13.494;2023-06-14T10:00:53;21.60;99.90
9768;DHT22;4923;52.520;13.494;2023-06-14T10:03:43;21.50;99.90
9768;DHT22;4923;52.520;13.494;2023-06-14T10:06:31;21.70;99.90
9768;DHT22;4923;52.520;13.494;2023-06-14T10:09:19;21.70;99.90
9768;DHT22;4923;52.520;13.494;2023-06-14T10:12:07;21.60;99.90
9768;DHT22;4923;52.520;13.494;2023-06-14T10:14:55;21.40;99.90
9768;DHT22;4923;52.520;13.494;2023-06-14T10:17:46;21.30;99.90
9768;DHT22;4923;52.520;13.494;2023-06-14T10:20:41;21.20;99.90
9768;DHT22;4923;52.520;13.494;2023-06-14T10:23:29;21.10;99.90
9768;DHT22;4923;52.520;13.494;2023-06-14T10:26:20;21.20;99.90
9768;DHT22;4923;52.520;13.494;2023-06-14T10:29:10;21.30;99.90
9768;DHT22;4923;52.520;13.494;2023-06-14T10:31:58;21.40;99.90
9768;DHT22;4923;52.520;13.494;2023-06-14T10:34:49;21.60;99.90
9768;DHT22;4923;52.520;13.494;2023-06-14T10:37:41;21.60;99.90
9768;DHT22;4923;52.520;13.494;2023-06-14T10:40:31;21.60;99.90
9768;DHT22;4923;52.520;13.494;2023-06-14T10:43:22;21.80;99.90
9768;DHT22;4923;52.520;13.494;2023-06-14T10:46:17;22.00;99.90
9768;DHT22;4923;52.520;13.494;2023-06-14T10:49:08;22.10;99.90
9768;DHT22;4923;52.520;13.494;2023-06-14T10:51:57;22.20;99.90
9768;DHT22;4923;52.520;13.494;2023-06-14T10:55:01;22.10;99.90
9768;DHT22;4923;52.520;13.494;2023-06-14T10:57:52;22.60;99.90
9768;DHT22;4923;52.520;13.494;2023-06-14T11:00:43;22.70;99.90
9768;DHT22;4923;52.520;13.494;2023-06-14T11:03:44;23.00;99.90
9768;DHT22;4923;52.520;13.494;2023-06-14T11:06:46;22.90;99.90
9768;DHT22;4923;52.520;13.494;2023-06-14T11:09:56;22.90;99.90
9768;DHT22;4923;52.520;13.494;2023-06-14T11:12:50;23.10;99.90
9768;DHT22;4923;52.520;13.494;2023-06-14T11:15:44;22.80;99.90
9768;DHT22;4923;52.520;13.494;2023-06-14T11:18:31;22.70;99.90
9768;DHT22;4923;52.520;13.494;2023-06-14T11:21:18;22.40;99.90
9768;DHT22;4923;52.520;13.494;2023-06-14T11:24:09;22.50;99.90
9768;DHT22;4923;52.520;13.494;2023-06-14T11:26:56;22.80;99.90
9768;DHT22;4923;52.520;13.494;2023-06-14T11:29:49;23.30;99.90
9768;DHT22;4923;52.520;13.494;2023-06-14T11:32:36;23.60;99.90
9768;DHT22;4923;52.520;13.494;2023-06-14T11:35:24;23.70;99.90
9768;DHT22;4923;52.520;13.494;2023-06-14T11:38:11;24.10;99.90
9768;DHT22;4923;52.520;13.494;2023-06-14T11:41:00;24.00;99.90
9768;DHT22;4923;52.520;13.494;2023-06-14T11:43:47;24.00;99.90
9768;DHT22;4923;52.520;13.494;2023-06-14T11:46:35;23.60;99.90
9768;DHT22;4923;52.520;13.494;2023-06-14T11:49:23;23.60;99.90
9768;DHT22;4923;52.520;13.494;2023-06-14T11:52:11;23.40;99.90
9768;DHT22;4923;52.520;13.494;2023-06-14T11:54:58;23.70;99.90
9768;DHT22;4923;52.520;13.494;2023-06-14T11:57:46;24.00;99.90
9768;DHT22;4923;52.520;13.494;2023-06-14T12:00:35;24.20;99.90
9768;DHT22;4923;52.520;13.494;2023-06-14T12:03:24;24.20;99.90
9768;DHT22;4923;52.520;13.494;2023-06-14T12:06:11;23.90;99.90
9768;DHT22;4923;52.520;13.494;2023-06-14T12:08:58;23.70;99.90
9768;DHT22;4923;52.520;13.494;2023-06-14T12:11:47;23.30;99.90
9768;DHT22;4923;52.520;13.494;2023-06-14T12:14:34;23.40;99.90
9768;DHT22;4923;52.520;13.494;2023-06-14T12:17:21;23.40;99.90
9768;DHT22;4923;52.520;13.494;2023-06-14T12:20:11;23.20;99.90
9768;DHT22;4923;52.520;13.494;2023-06-14T12:22:59;23.10;99.90
9768;DHT22;4923;52.520;13.494;2023-06-14T12:25:49;23.00;99.90
9768;DHT22;4923;52.520;13.494;2023-06-14T12:28:37;23.20;99.90
9768;DHT22;4923;52.520;13.494;2023-06-14T12:31:26;23.20;99.90
9768;DHT22;4923;52.520;13.494;2023-06-14T12:34:13;23.20;99.90
9768;DHT22;4923;52.520;13.494;2023-06-14T12:37:01;23.60;99.90
9768;DHT22;4923;52.520;13.494;2023-06-14T12:39:49;23.60;99.90
9768;DHT22;4923;52.520;13.494;2023-06-14T12:42:37;23.70;99.90
9768;DHT22;4923;52.520;13.494;2023-06-14T12:45:23;23.80;99.90
9768;DHT22;4923;52.520;13.494;2023-06-14T12:48:10;23.70;99.90
9768;DHT22;4923;52.520;13.494;2023-06-14T12:50:57;23.80;99.90
9768;DHT22;4923;52.520;13.494;2023-06-14T12:53:45;24.20;99.90
9768;DHT22;4923;52.520;13.494;2023-06-14T12:56:32;24.50;99.90
9768;DHT22;4923;52.520;13.494;2023-06-14T12:59:19;24.90;99.90
9768;DHT22;4923;52.520;13.494;2023-06-14T13:02:13;24.90;99.90
9768;DHT22;4923;52.520;13.494;2023-06-14T13:05:00;25.00;99.90
9768;DHT22;4923;52.520;13.494;2023-06-14T13:07:49;24.40;99.90
9768;DHT22;4923;52.520;13.494;2023-06-14T13:10:38;24.40;99.90
9768;DHT22;4923;52.520;13.494;2023-06-14T13:13:25;24.70;99.90
9768;DHT22;4923;52.520;13.494;2023-06-14T13:16:11;24.80;99.90
9768;DHT22;4923;52.520;13.494;2023-06-14T13:19:00;24.50;99.90
9768;DHT22;4923;52.520;13.494;2023-06-14T13:21:47;24.50;99.90
9768;DHT22;4923;52.520;13.494;2023-06-14T13:24:34;24.50;99.90
9768;DHT22;4923;52.520;13.494;2023-06-14T13:27:22;24.50;99.90
9768;DHT22;4923;52.520;13.494;2023-06-14T13:30:11;24.70;99.90
9768;DHT22;4923;52.520;13.494;2023-06-14T13:32:58;24.80;99.90
9768;DHT22;4923;52.520;13.494;2023-06-14T13:35:45;25.10;99.90
9768;DHT22;4923;52.520;13.494;2023-06-14T13:38:34;25.10;99.90
9768;DHT22;4923;52.520;13.494;2023-06-14T13:41:21;25.30;99.90
9768;DHT22;4923;52.520;13.494;2023-06-14T13:44:10;25.30;99.90
9768;DHT22;4923;52.520;13.494;2023-06-14T13:46:59;25.20;99.90
9768;DHT22;4923;52.520;13.494;2023-06-14T13:49:46;25.30;99.90
9768;DHT22;4923;52.520;13.494;2023-06-14T13:52:33;25.50;99.90
9768;DHT22;4923;52.520;13.494;2023-06-14T13:55:21;25.80;99.90
9768;DHT22;4923;52.520;13.494;2023-06-14T13:58:08;26.10;99.90
9768;DHT22;4923;52.520;13.494;2023-06-14T14:00:56;26.40;99.90
9768;DHT22;4923;52.520;13.494;2023-06-14T14:03:45;26.50;99.90
9768;DHT22;4923;52.520;13.494;2023-06-14T14:06:32;26.30;99.90
9768;DHT22;4923;52.520;13.494;2023-06-14T14:09:19;25.80;99.90
9768;DHT22;4923;52.520;13.494;2023-06-14T14:12:06;25.80;99.90
9768;DHT22;4923;52.520;13.494;2023-06-14T14:14:53;26.00;99.90
9768;DHT22;4923;52.520;13.494;2023-06-14T14:17:42;26.30;99.90
9768;DHT22;4923;52.520;13.494;2023-06-14T14:20:30;26.50;99.90
9768;DHT22;4923;52.520;13.494;2023-06-14T14:23:16;26.60;99.90
9768;DHT22;4923;52.520;13.494;2023-06-14T14:26:05;26.70;99.90
9768;DHT22;4923;52.520;13.494;2023-06-14T14:28:52;26.90;99.90
9768;DHT22;4923;52.520;13.494;2023-06-14T14:31:39;26.80;99.90
9768;DHT22;4923;52.520;13.494;2023-06-14T14:34:27;26.10;99.90
9768;DHT22;4923;52.520;13.494;2023-06-14T14:37:14;26.40;99.90
9768;DHT22;4923;52.520;13.494;2023-06-14T14:40:02;26.60;99.90
9768;DHT22;4923;52.520;13.494;2023-06-14T14:42:49;26.10;99.90
9768;DHT22;4923;52.520;13.494;2023-06-14T14:45:36;25.50;99.90
9768;DHT22;4923;52.520;13.494;2023-06-14T14:48:23;25.50;99.90
9768;DHT22;4923;52.520;13.494;2023-06-14T14:51:12;25.20;99.90
9768;DHT22;4923;52.520;13.494;2023-06-14T14:53:58;25.10;99.90
9768;DHT22;4923;52.520;13.494;2023-06-14T14:56:45;24.70;99.90
9768;DHT22;4923;52.520;13.494;2023-06-14T14:59:32;24.30;99.90
9768;DHT22;4923;52.520;13.494;2023-06-14T15:02:19;24.00;99.90
9768;DHT22;4923;52.520;13.494;2023-06-14T15:05:06;23.70;99.90
9768;DHT22;4923;52.520;13.494;2023-06-14T15:07:55;23.20;99.90
9768;DHT22;4923;52.520;13.494;2023-06-14T15:10:41;22.90;99.90
9768;DHT22;4923;52.520;13.494;2023-06-14T15:13:28;22.80;99.90
9768;DHT22;4923;52.520;13.494;2023-06-14T15:16:15;22.70;99.90
9768;DHT22;4923;52.520;13.494;2023-06-14T15:19:02;22.80;99.90
9768;DHT22;4923;52.520;13.494;2023-06-14T15:21:49;22.70;99.90
9768;DHT22;4923;52.520;13.494;2023-06-14T15:24:37;22.70;99.90
9768;DHT22;4923;52.520;13.494;2023-06-14T15:27:24;22.60;99.90
9768;DHT22;4923;52.520;13.494;2023-06-14T15:30:12;22.90;99.90
9768;DHT22;4923;52.520;13.494;2023-06-14T15:32:59;23.10;99.90
9768;DHT22;4923;52.520;13.494;2023-06-14T15:35:46;23.30;99.90
9768;DHT22;4923;52.520;13.494;2023-06-14T15:38:33;23.20;99.90
9768;DHT22;4923;52.520;13.494;2023-06-14T15:41:21;23.10;99.90
9768;DHT22;4923;52.520;13.494;2023-06-14T15:44:08;23.10;99.90
9768;DHT22;4923;52.520;13.494;2023-06-14T15:46:55;23.10;99.90
9768;DHT22;4923;52.520;13.494;2023-06-14T15:49:42;23.00;99.90
9768;DHT22;4923;52.520;13.494;2023-06-14T15:52:29;22.80;99.90
9768;DHT22;4923;52.520;13.494;2023-06-14T15:55:16;22.80;99.90
9768;DHT22;4923;52.520;13.494;2023-06-14T15:58:04;22.60;99.90
9768;DHT22;4923;52.520;13.494;2023-06-14T16:00:51;22.60;99.90
9768;DHT22;4923;52.520;13.494;2023-06-14T16:03:38;22.70;99.90
9768;DHT22;4923;52.520;13.494;2023-06-14T16:06:25;22.60;99.90
9768;DHT22;4923;52.520;13.494;2023-06-14T16:09:11;22.50;99.90
9768;DHT22;4923;52.520;13.494;2023-06-14T16:11:58;22.40;99.90
9768;DHT22;4923;52.520;13.494;2023-06-14T16:14:47;22.40;99.90
9768;DHT22;4923;52.520;13.494;2023-06-14T16:17:34;22.30;99.90
9768;DHT22;4923;52.520;13.494;2023-06-14T16:20:21;22.20;99.90
9768;DHT22;4923;52.520;13.494;2023-06-14T16:23:07;22.40;99.90
9768;DHT22;4923;52.520;13.494;2023-06-14T16:25:54;22.40;99.90
9768;DHT22;4923;52.520;13.494;2023-06-14T16:28:41;22.10;99.90
9768;DHT22;4923;52.520;13.494;2023-06-14T16:31:30;22.10;99.90
9768;DHT22;4923;52.520;13.494;2023-06-14T16:34:16;22.10;99.90
9768;DHT22;4923;52.520;13.494;2023-06-14T16:37:03;22.00;99.90
9768;DHT22;4923;52.520;13.494;2023-06-14T16:39:50;22.10;99.90
9768;DHT22;4923;52.520;13.494;2023-06-14T16:42:37;22.10;99.90
9768;DHT22;4923;52.520;13.494;2023-06-14T16:45:24;22.00;99.90
9768;DHT22;4923;52.520;13.494;2023-06-14T16:48:12;22.00;99.90
9768;DHT22;4923;52.520;13.494;2023-06-14T16:50:59;22.00;99.90
9768;DHT22;4923;52.520;13.494;2023-06-14T16:53:46;22.00;99.90
9768;DHT22;4923;52.520;13.494;2023-06-14T16:56:33;21.90;99.90
9768;DHT22;4923;52.520;13.494;2023-06-14T16:59:20;21.70;99.90
9768;DHT22;4923;52.520;13.494;2023-06-14T17:02:07;21.60;99.90
9768;DHT22;4923;52.520;13.494;2023-06-14T17:04:55;21.40;99.90
9768;DHT22;4923;52.520;13.494;2023-06-14T17:07:42;21.40;99.90
9768;DHT22;4923;52.520;13.494;2023-06-14T17:10:29;21.20;99.90
9768;DHT22;4923;52.520;13.494;2023-06-14T17:13:16;21.10;99.90
9768;DHT22;4923;52.520;13.494;2023-06-14T17:16:04;21.10;99.90
9768;DHT22;4923;52.520;13.494;2023-06-14T17:18:52;21.10;99.90
9768;DHT22;4923;52.520;13.494;2023-06-14T17:21:40;21.10;99.90
9768;DHT22;4923;52.520;13.494;2023-06-14T17:24:28;21.10;99.90
9768;DHT22;4923;52.520;13.494;2023-06-14T17:27:15;21.10;99.90
9768;DHT22;4923;52.520;13.494;2023-06-14T17:30:02;21.10;99.90
9768;DHT22;4923;52.520;13.494;2023-06-14T17:32:52;21.10;99.90
9768;DHT22;4923;52.520;13.494;2023-06-14T17:35:38;21.10;99.90
9768;DHT22;4923;52.520;13.494;2023-06-14T17:38:27;21.00;99.90
9768;DHT22;4923;52.520;13.494;2023-06-14T17:41:17;21.00;99.90
9768;DHT22;4923;52.520;13.494;2023-06-14T17:44:04;21.10;99.90
9768;DHT22;4923;52.520;13.494;2023-06-14T17:46:51;21.00;99.90
9768;DHT22;4923;52.520;13.494;2023-06-14T17:49:38;20.90;99.90
9768;DHT22;4923;52.520;13.494;2023-06-14T17:52:25;21.00;99.90
9768;DHT22;4923;52.520;13.494;2023-06-14T17:55:13;20.90;99.90
9768;DHT22;4923;52.520;13.494;2023-06-14T17:58:02;20.80;99.90
9768;DHT22;4923;52.520;13.494;2023-06-14T18:00:50;20.80;99.90
9768;DHT22;4923;52.520;13.494;2023-06-14T18:03:37;20.80;99.90
9768;DHT22;4923;52.520;13.494;2023-06-14T18:06:24;20.80;99.90
9768;DHT22;4923;52.520;13.494;2023-06-14T18:09:11;20.80;99.90